createdAt,value
2023-02-12T00:03:07.591Z,38.97
2023-02-12T00:08:09.279Z,39.22
2023-02-12T00:13:14.873Z,40.80
2023-02-12T00:18:16.218Z,37.95
2023-02-12T00:23:17.505Z,36.15
2023-02-12T00:28:18.866Z,42.93
2023-02-12T00:33:20.263Z,38.55
2023-02-12T00:38:21.590Z,41.10
2023-02-12T00:43:22.947Z,42.58
2023-02-12T00:48:24.225Z,40.50
2023-02-12T00:53:25.563Z,42.43
2023-02-12T00:58:26.963Z,40.80
2023-02-12T01:03:28.275Z,36.40
2023-02-12T01:08:30.143Z,36.25
2023-02-12T01:13:32.182Z,37.33
2023-02-12T01:18:33.512Z,37.23
2023-02-12T01:23:34.759Z,38.92
2023-02-12T01:28:36.708Z,40.93
2023-02-12T01:33:38.049Z,40.83
2023-02-12T01:38:39.317Z,39.10
2023-02-12T01:43:40.848Z,37.87
2023-02-12T01:48:43.386Z,37.58
2023-02-12T01:53:49.059Z,36.67
2023-02-12T01:58:51.154Z,39.97
2023-02-12T02:03:53.984Z,36.72
2023-02-12T02:08:56.050Z,36.97
2023-02-12T02:14:16.232Z,39.20
2023-02-12T02:19:30.358Z,38.27
2023-02-12T02:24:39.496Z,37.78
2023-02-12T02:29:43.831Z,39.90
2023-02-12T02:34:45.091Z,37.67
2023-02-12T02:39:58.324Z,35.63
2023-02-12T02:45:13.183Z,36.70
2023-02-12T02:50:16.867Z,35.95
2023-02-12T02:55:19.197Z,38.15
2023-02-12T03:00:22.248Z,37.50
2023-02-12T03:05:33.512Z,37.55
2023-02-12T03:10:38.268Z,31.90
2023-02-12T03:15:44.469Z,34.72
2023-02-12T03:20:48.639Z,33.88
2023-02-12T03:25:59.313Z,37.47
2023-02-12T03:31:10.745Z,30.85
2023-02-12T03:36:30.776Z,34.43
2023-02-12T03:41:37.058Z,32.40
2023-02-12T03:46:50.503Z,35.03
2023-02-12T03:51:51.865Z,30.37
2023-02-12T03:57:10.433Z,33.10
2023-02-12T04:02:12.384Z,35.00
2023-02-12T04:07:13.968Z,29.08
2023-02-12T04:12:25.270Z,31.85
2023-02-12T04:17:30.499Z,30.67
2023-02-12T04:22:37.794Z,33.08
2023-02-12T04:27:59.386Z,34.10
2023-02-12T04:33:02.575Z,34.47
2023-02-12T04:38:11.361Z,28.70
2023-02-12T04:43:12.630Z,31.33
2023-02-12T04:48:14.945Z,29.48
2023-02-12T04:53:16.399Z,30.07
2023-02-12T04:58:18.028Z,28.40
2023-02-12T05:03:19.330Z,28.92
2023-02-12T05:08:20.604Z,26.20
2023-02-12T05:13:21.916Z,30.67
2023-02-12T05:18:23.298Z,30.57
2023-02-12T05:23:28.447Z,28.73
2023-02-12T05:28:30.247Z,30.83
2023-02-12T05:33:31.674Z,31.33
2023-02-12T05:38:33.818Z,28.23
2023-02-12T05:43:35.071Z,32.57
2023-02-12T05:48:37.152Z,31.15
2023-02-12T05:53:39.268Z,30.33
2023-02-12T05:58:41.665Z,31.43
2023-02-12T06:03:43.554Z,33.83
2023-02-12T06:08:49.152Z,31.73
2023-02-12T06:13:50.841Z,33.17
2023-02-12T06:18:52.961Z,30.50
2023-02-12T06:23:54.413Z,29.83
2023-02-12T06:28:55.715Z,32.50
2023-02-12T06:33:57.876Z,29.90
2023-02-12T06:39:00.908Z,30.20
2023-02-12T06:44:02.253Z,32.78
2023-02-12T06:49:03.771Z,29.80
2023-02-12T06:54:05.043Z,30.83
2023-02-12T06:59:06.332Z,32.87
2023-02-12T07:04:07.755Z,36.15
2023-02-12T07:09:09.148Z,30.27
2023-02-12T07:14:14.729Z,27.57
2023-02-12T07:19:16.421Z,28.23
2023-02-12T07:24:20.720Z,30.50
2023-02-12T07:29:22.010Z,35.33
2023-02-12T07:34:23.277Z,33.67
2023-02-12T07:39:24.606Z,30.10
2023-02-12T07:44:25.903Z,34.08
2023-02-12T07:49:27.175Z,36.03
2023-02-12T07:54:28.562Z,34.00
2023-02-12T07:59:29.973Z,41.50
2023-02-12T08:04:31.424Z,35.53
2023-02-12T08:09:32.784Z,35.42
2023-02-12T08:14:34.171Z,38.87
2023-02-12T08:19:35.636Z,39.42
2023-02-12T08:24:36.892Z,38.55
2023-02-12T08:29:38.187Z,43.90
2023-02-12T08:34:39.500Z,42.35
2023-02-12T08:39:40.806Z,37.90
2023-02-12T08:44:42.514Z,35.20
2023-02-12T08:49:43.859Z,34.25
2023-02-12T08:54:45.129Z,34.63
2023-02-12T08:59:48.444Z,40.47
2023-02-12T09:04:49.734Z,41.53
2023-02-12T09:09:51.012Z,40.88
2023-02-12T09:14:52.399Z,32.35
2023-02-12T09:19:54.026Z,36.27
2023-02-12T09:24:55.272Z,35.70
2023-02-12T09:29:56.540Z,38.73
2023-02-12T09:34:57.828Z,36.28
2023-02-12T09:39:59.111Z,34.55
2023-02-12T09:45:19.425Z,34.70
2023-02-12T09:50:36.258Z,36.53
2023-02-12T09:55:37.556Z,34.27
2023-02-12T10:00:38.899Z,32.17
2023-02-12T10:05:51.152Z,30.00
2023-02-12T10:10:53.837Z,28.63
2023-02-12T10:16:07.419Z,29.33
2023-02-12T10:21:08.789Z,27.93
2023-02-12T10:26:15.424Z,24.67
2023-02-12T10:31:24.596Z,19.30
2023-02-12T10:36:45.812Z,19.60
2023-02-12T10:41:47.154Z,18.75
2023-02-12T10:46:48.559Z,18.17
2023-02-12T10:52:02.243Z,21.92
2023-02-12T10:57:26.603Z,15.00
2023-02-12T11:02:29.232Z,12.93
2023-02-12T11:07:45.616Z,13.77
2023-02-12T11:12:48.155Z,11.17
2023-02-12T11:18:00.688Z,14.75
2023-02-12T11:23:03.131Z,12.95
2023-02-12T11:28:10.750Z,13.20
2023-02-12T11:33:16.526Z,15.70
2023-02-12T11:38:24.636Z,13.40
2023-02-12T11:43:27.468Z,14.77
2023-02-12T11:48:33.860Z,13.30
2023-02-12T11:53:37.893Z,14.17
2023-02-12T11:58:39.304Z,14.52
2023-02-12T12:03:53.040Z,22.37
2023-02-12T12:08:57.962Z,18.60
2023-02-12T12:14:11.109Z,23.38
2023-02-12T12:19:34.613Z,18.87
2023-02-12T12:24:45.089Z,22.25
2023-02-12T12:30:00.944Z,20.80
2023-02-12T12:35:02.367Z,20.08
2023-02-12T12:40:26.978Z,18.45
2023-02-12T12:45:43.465Z,15.70
2023-02-12T12:50:47.896Z,21.73
2023-02-12T12:55:49.241Z,25.17
2023-02-12T13:01:09.457Z,17.52
2023-02-12T13:06:23.213Z,17.48
2023-02-12T13:11:33.796Z,17.40
2023-02-12T13:16:52.868Z,16.60
2023-02-12T13:21:58.106Z,16.23
2023-02-12T13:27:06.059Z,14.40
2023-02-12T13:32:16.502Z,15.82
2023-02-12T13:37:20.415Z,14.93
2023-02-12T13:42:29.791Z,16.45
2023-02-12T13:47:31.161Z,21.90
2023-02-12T13:52:48.221Z,15.55
2023-02-12T13:58:08.487Z,14.55
2023-02-12T14:03:09.841Z,13.53
2023-02-12T14:08:28.050Z,12.82
2023-02-12T14:13:34.183Z,13.33
2023-02-12T14:18:36.477Z,12.38
2023-02-12T14:23:45.872Z,15.35
2023-02-12T14:28:52.051Z,12.93
2023-02-12T14:34:05.508Z,13.57
2023-02-12T14:39:19.083Z,9.67
2023-02-12T14:44:22.735Z,12.65
2023-02-12T14:49:27.864Z,10.95
2023-02-12T14:54:43.427Z,7.97
2023-02-12T14:59:45.224Z,9.98
2023-02-12T15:04:46.560Z,9.17
2023-02-12T15:09:51.848Z,8.55
2023-02-12T15:15:12.128Z,9.38
2023-02-12T15:20:19.928Z,9.83
2023-02-12T15:25:28.806Z,8.60
2023-02-12T15:30:35.473Z,9.47
2023-02-12T15:35:37.820Z,7.65
2023-02-12T15:40:53.182Z,8.23
2023-02-12T15:45:54.707Z,9.37
2023-02-12T15:51:16.370Z,7.82
2023-02-12T15:56:20.381Z,8.93
2023-02-12T16:01:23.161Z,8.25
2023-02-12T16:06:25.650Z,9.82
2023-02-12T16:11:27.361Z,10.80
2023-02-12T16:16:30.116Z,11.15
2023-02-12T16:21:33.465Z,12.73
2023-02-12T16:26:34.953Z,9.77
2023-02-12T16:31:36.402Z,10.88
2023-02-12T16:36:45.757Z,17.97
2023-02-12T16:41:55.041Z,10.77
2023-02-12T16:46:58.457Z,11.07
2023-02-12T16:52:20.198Z,12.73
2023-02-12T16:57:21.467Z,12.77
2023-02-12T17:02:22.757Z,16.47
2023-02-12T17:07:27.448Z,21.25
2023-02-12T17:12:28.758Z,15.60
2023-02-12T17:17:30.132Z,18.48
2023-02-12T17:22:31.429Z,25.35
2023-02-12T17:27:32.702Z,20.77
2023-02-12T17:32:34.014Z,18.92
2023-02-12T17:37:35.250Z,25.83
2023-02-12T17:42:36.662Z,25.98
2023-02-12T17:47:39.890Z,31.77
2023-02-12T17:52:41.441Z,34.13
2023-02-12T17:57:42.821Z,27.80
2023-02-12T18:02:44.067Z,28.00
2023-02-12T18:07:45.343Z,24.30
2023-02-12T18:12:46.665Z,28.25
2023-02-12T18:17:47.985Z,25.77
2023-02-12T18:22:50.103Z,24.58
2023-02-12T18:27:51.395Z,25.20
2023-02-12T18:32:52.698Z,30.63
2023-02-12T18:37:53.945Z,25.30
2023-02-12T18:42:55.216Z,26.10
2023-02-12T18:47:56.474Z,30.50
2023-02-12T18:52:57.757Z,27.57
2023-02-12T18:57:59.055Z,29.60
2023-02-12T19:03:00.401Z,19.77
2023-02-12T19:08:02.084Z,22.40
2023-02-12T19:13:03.388Z,20.55
2023-02-12T19:18:04.812Z,23.73
2023-02-12T19:23:06.180Z,19.55
2023-02-12T19:28:07.588Z,25.08
2023-02-12T19:33:08.926Z,26.57
2023-02-12T19:38:10.233Z,28.08
2023-02-12T19:43:11.637Z,25.40
2023-02-12T19:48:12.955Z,22.95
2023-02-12T19:53:14.444Z,30.13
2023-02-12T19:58:15.835Z,34.83
2023-02-12T20:03:18.126Z,37.97
2023-02-12T20:08:20.011Z,30.00
2023-02-12T20:13:22.508Z,37.88
2023-02-12T20:18:23.879Z,40.63
2023-02-12T20:23:25.504Z,36.30
2023-02-12T20:28:26.923Z,32.72
2023-02-12T20:33:28.279Z,30.60
2023-02-12T20:38:30.601Z,27.20
2023-02-12T20:43:32.648Z,23.92
2023-02-12T20:48:33.942Z,30.10
2023-02-12T20:53:35.582Z,29.30
2023-02-12T20:58:38.364Z,28.47
2023-02-12T21:03:40.137Z,27.50
2023-02-12T21:08:41.894Z,30.15
2023-02-12T21:13:53.714Z,32.33
2023-02-12T21:19:04.138Z,30.52
2023-02-12T21:24:07.195Z,27.60
2023-02-12T21:29:08.525Z,26.92
2023-02-12T21:34:12.757Z,26.98
2023-02-12T21:39:15.634Z,30.90
2023-02-12T21:44:17.850Z,32.63
2023-02-12T21:49:25.043Z,35.90
2023-02-12T21:54:26.905Z,33.92
2023-02-12T21:59:30.800Z,29.30
2023-02-12T22:04:33.100Z,26.23
2023-02-12T22:09:34.433Z,32.00
2023-02-12T22:14:35.711Z,28.43
2023-02-12T22:19:37.028Z,25.70
2023-02-12T22:24:38.364Z,26.80
2023-02-12T22:29:40.722Z,28.23
2023-02-12T22:34:42.003Z,26.58
2023-02-12T22:39:43.300Z,31.23
2023-02-12T22:44:44.582Z,28.90
2023-02-12T22:49:45.867Z,31.90
2023-02-12T22:54:47.166Z,30.67
2023-02-12T22:59:51.431Z,25.20
2023-02-12T23:04:52.738Z,26.13
2023-02-12T23:09:54.082Z,27.45
2023-02-12T23:14:55.405Z,23.38
2023-02-12T23:19:56.719Z,20.53
2023-02-12T23:24:58.214Z,24.02
2023-02-12T23:29:59.518Z,30.83
2023-02-12T23:35:00.825Z,30.30
2023-02-12T23:40:02.135Z,32.45
2023-02-12T23:45:03.473Z,30.47
2023-02-12T23:50:05.348Z,26.63
2023-02-12T23:55:06.952Z,35.57
